sensor_id;sensor_type;location;lat;lon;timestamp;P1;durP1;ratioP1;P2;durP2;ratioP2
79526;SDS011;68974;47.754;-3.364;2023-06-19T00:00:45;7.68;;;3.53;;
79526;SDS011;68974;47.754;-3.364;2023-06-19T00:03:10;8.98;;;3.65;;
79526;SDS011;68974;47.754;-3.364;2023-06-19T00:05:35;12.13;;;5.28;;
79526;SDS011;68974;47.754;-3.364;2023-06-19T00:08:01;8.38;;;4.43;;
79526;SDS011;68974;47.754;-3.364;2023-06-19T00:10:28;12.32;;;4.28;;
79526;SDS011;68974;47.754;-3.364;2023-06-19T00:12:53;9.73;;;4.13;;
79526;SDS011;68974;47.754;-3.364;2023-06-19T00:15:19;9.75;;;3.95;;
79526;SDS011;68974;47.754;-3.364;2023-06-19T00:17:44;10.75;;;3.70;;
79526;SDS011;68974;47.754;-3.364;2023-06-19T00:20:10;11.05;;;4.28;;
79526;SDS011;68974;47.754;-3.364;2023-06-19T00:22:35;8.43;;;4.10;;
79526;SDS011;68974;47.754;-3.364;2023-06-19T00:25:01;7.30;;;4.40;;
79526;SDS011;68974;47.754;-3.364;2023-06-19T00:27:26;10.68;;;4.43;;
79526;SDS011;68974;47.754;-3.364;2023-06-19T00:29:51;9.25;;;4.30;;
79526;SDS011;68974;47.754;-3.364;2023-06-19T00:32:17;9.40;;;4.13;;
79526;SDS011;68974;47.754;-3.364;2023-06-19T00:34:42;10.30;;;4.55;;
79526;SDS011;68974;47.754;-3.364;2023-06-19T00:37:08;7.88;;;4.13;;
79526;SDS011;68974;47.754;-3.364;2023-06-19T00:39:34;8.15;;;3.90;;
79526;SDS011;68974;47.754;-3.364;2023-06-19T00:42:00;9.70;;;4.25;;
79526;SDS011;68974;47.754;-3.364;2023-06-19T00:44:26;5.32;;;3.58;;
79526;SDS011;68974;47.754;-3.364;2023-06-19T00:46:55;10.07;;;4.38;;
79526;SDS011;68974;47.754;-3.364;2023-06-19T00:49:23;9.05;;;4.47;;
79526;SDS011;68974;47.754;-3.364;2023-06-19T00:51:51;8.43;;;4.40;;
79526;SDS011;68974;47.754;-3.364;2023-06-19T00:54:17;9.45;;;5.00;;
79526;SDS011;68974;47.754;-3.364;2023-06-19T00:56:43;9.90;;;5.07;;
79526;SDS011;68974;47.754;-3.364;2023-06-19T00:59:15;10.10;;;4.35;;
79526;SDS011;68974;47.754;-3.364;2023-06-19T01:01:42;8.00;;;4.20;;
79526;SDS011;68974;47.754;-3.364;2023-06-19T01:04:08;11.00;;;4.95;;
79526;SDS011;68974;47.754;-3.364;2023-06-19T01:06:37;7.10;;;3.78;;
79526;SDS011;68974;47.754;-3.364;2023-06-19T01:09:17;11.80;;;5.80;;
79526;SDS011;68974;47.754;-3.364;2023-06-19T01:14:17;10.80;;;4.95;;
79526;SDS011;68974;47.754;-3.364;2023-06-19T01:16:45;8.82;;;3.95;;
79526;SDS011;68974;47.754;-3.364;2023-06-19T01:19:13;6.13;;;4.13;;
79526;SDS011;68974;47.754;-3.364;2023-06-19T01:21:42;12.20;;;4.68;;
79526;SDS011;68974;47.754;-3.364;2023-06-19T01:24:11;9.13;;;4.47;;
79526;SDS011;68974;47.754;-3.364;2023-06-19T01:26:37;13.43;;;4.45;;
79526;SDS011;68974;47.754;-3.364;2023-06-19T01:29:02;9.95;;;4.00;;
79526;SDS011;68974;47.754;-3.364;2023-06-19T01:31:31;13.38;;;4.60;;
79526;SDS011;68974;47.754;-3.364;2023-06-19T01:34:06;7.95;;;4.28;;
79526;SDS011;68974;47.754;-3.364;2023-06-19T01:36:33;7.43;;;4.30;;
79526;SDS011;68974;47.754;-3.364;2023-06-19T01:39:00;12.00;;;4.35;;
79526;SDS011;68974;47.754;-3.364;2023-06-19T01:41:26;11.45;;;4.00;;
79526;SDS011;68974;47.754;-3.364;2023-06-19T01:43:53;7.93;;;3.70;;
79526;SDS011;68974;47.754;-3.364;2023-06-19T01:46:19;17.52;;;5.50;;
79526;SDS011;68974;47.754;-3.364;2023-06-19T01:48:44;10.82;;;4.22;;
79526;SDS011;68974;47.754;-3.364;2023-06-19T01:51:10;9.68;;;4.47;;
79526;SDS011;68974;47.754;-3.364;2023-06-19T01:53:36;11.68;;;4.30;;
79526;SDS011;68974;47.754;-3.364;2023-06-19T01:56:01;11.88;;;4.40;;
79526;SDS011;68974;47.754;-3.364;2023-06-19T01:58:27;8.63;;;4.13;;
79526;SDS011;68974;47.754;-3.364;2023-06-19T02:00:53;12.25;;;4.13;;
79526;SDS011;68974;47.754;-3.364;2023-06-19T02:03:18;7.68;;;3.85;;
79526;SDS011;68974;47.754;-3.364;2023-06-19T02:05:43;7.63;;;3.67;;
79526;SDS011;68974;47.754;-3.364;2023-06-19T02:08:09;6.43;;;3.90;;
79526;SDS011;68974;47.754;-3.364;2023-06-19T02:10:34;10.48;;;4.75;;
79526;SDS011;68974;47.754;-3.364;2023-06-19T02:13:02;9.88;;;4.00;;
79526;SDS011;68974;47.754;-3.364;2023-06-19T02:15:28;6.65;;;3.92;;
79526;SDS011;68974;47.754;-3.364;2023-06-19T02:17:55;8.50;;;4.00;;
79526;SDS011;68974;47.754;-3.364;2023-06-19T02:20:21;6.75;;;3.78;;
79526;SDS011;68974;47.754;-3.364;2023-06-19T02:22:49;9.90;;;4.10;;
79526;SDS011;68974;47.754;-3.364;2023-06-19T02:25:15;10.68;;;4.43;;
79526;SDS011;68974;47.754;-3.364;2023-06-19T02:27:41;8.80;;;3.78;;
79526;SDS011;68974;47.754;-3.364;2023-06-19T02:30:06;14.00;;;5.13;;
79526;SDS011;68974;47.754;-3.364;2023-06-19T02:32:32;8.65;;;4.18;;
79526;SDS011;68974;47.754;-3.364;2023-06-19T02:34:58;8.10;;;3.78;;
79526;SDS011;68974;47.754;-3.364;2023-06-19T02:37:23;9.27;;;3.92;;
79526;SDS011;68974;47.754;-3.364;2023-06-19T02:39:49;10.88;;;4.07;;
79526;SDS011;68974;47.754;-3.364;2023-06-19T02:42:14;9.27;;;4.28;;
79526;SDS011;68974;47.754;-3.364;2023-06-19T02:44:40;8.63;;;3.88;;
79526;SDS011;68974;47.754;-3.364;2023-06-19T02:47:07;13.43;;;4.40;;
79526;SDS011;68974;47.754;-3.364;2023-06-19T02:49:32;11.60;;;4.13;;
79526;SDS011;68974;47.754;-3.364;2023-06-19T02:51:58;13.25;;;4.72;;
79526;SDS011;68974;47.754;-3.364;2023-06-19T02:54:23;7.00;;;3.90;;
79526;SDS011;68974;47.754;-3.364;2023-06-19T02:56:49;9.65;;;4.30;;
79526;SDS011;68974;47.754;-3.364;2023-06-19T02:59:14;12.15;;;3.80;;
79526;SDS011;68974;47.754;-3.364;2023-06-19T03:01:39;13.82;;;4.60;;
79526;SDS011;68974;47.754;-3.364;2023-06-19T03:04:05;10.38;;;3.65;;
79526;SDS011;68974;47.754;-3.364;2023-06-19T03:06:30;9.23;;;3.90;;
79526;SDS011;68974;47.754;-3.364;2023-06-19T03:08:56;7.95;;;3.95;;
79526;SDS011;68974;47.754;-3.364;2023-06-19T03:11:21;14.88;;;4.43;;
79526;SDS011;68974;47.754;-3.364;2023-06-19T03:13:50;11.05;;;4.70;;
79526;SDS011;68974;47.754;-3.364;2023-06-19T03:16:17;10.75;;;4.00;;
79526;SDS011;68974;47.754;-3.364;2023-06-19T03:18:43;10.88;;;4.20;;
79526;SDS011;68974;47.754;-3.364;2023-06-19T03:21:12;8.73;;;3.42;;
79526;SDS011;68974;47.754;-3.364;2023-06-19T03:23:39;9.98;;;3.45;;
79526;SDS011;68974;47.754;-3.364;2023-06-19T03:26:06;9.45;;;4.10;;
79526;SDS011;68974;47.754;-3.364;2023-06-19T03:28:32;12.43;;;4.05;;
79526;SDS011;68974;47.754;-3.364;2023-06-19T03:30:57;7.45;;;3.58;;
79526;SDS011;68974;47.754;-3.364;2023-06-19T03:33:23;10.25;;;3.80;;
79526;SDS011;68974;47.754;-3.364;2023-06-19T03:35:48;10.30;;;3.22;;
79526;SDS011;68974;47.754;-3.364;2023-06-19T03:38:14;10.15;;;3.83;;
79526;SDS011;68974;47.754;-3.364;2023-06-19T03:40:39;8.90;;;3.75;;
79526;SDS011;68974;47.754;-3.364;2023-06-19T03:43:05;13.77;;;4.55;;
79526;SDS011;68974;47.754;-3.364;2023-06-19T03:45:30;9.52;;;3.95;;
79526;SDS011;68974;47.754;-3.364;2023-06-19T03:47:55;14.07;;;4.65;;
79526;SDS011;68974;47.754;-3.364;2023-06-19T03:50:21;10.90;;;4.75;;
79526;SDS011;68974;47.754;-3.364;2023-06-19T03:52:46;10.85;;;4.22;;
79526;SDS011;68974;47.754;-3.364;2023-06-19T03:55:12;9.82;;;4.63;;
79526;SDS011;68974;47.754;-3.364;2023-06-19T03:57:37;13.02;;;4.95;;
79526;SDS011;68974;47.754;-3.364;2023-06-19T04:00:02;10.35;;;4.55;;
79526;SDS011;68974;47.754;-3.364;2023-06-19T04:02:32;11.38;;;4.20;;
79526;SDS011;68974;47.754;-3.364;2023-06-19T04:04:58;8.43;;;4.10;;
79526;SDS011;68974;47.754;-3.364;2023-06-19T04:07:24;7.30;;;3.78;;
79526;SDS011;68974;47.754;-3.364;2023-06-19T04:09:49;11.15;;;5.38;;
79526;SDS011;68974;47.754;-3.364;2023-06-19T04:12:15;9.60;;;4.00;;
79526;SDS011;68974;47.754;-3.364;2023-06-19T04:14:40;10.50;;;4.18;;
79526;SDS011;68974;47.754;-3.364;2023-06-19T04:17:05;8.88;;;4.38;;
79526;SDS011;68974;47.754;-3.364;2023-06-19T04:19:31;8.52;;;3.70;;
79526;SDS011;68974;47.754;-3.364;2023-06-19T04:21:56;9.68;;;3.95;;
79526;SDS011;68974;47.754;-3.364;2023-06-19T04:24:21;9.40;;;4.10;;
79526;SDS011;68974;47.754;-3.364;2023-06-19T04:26:47;8.27;;;3.92;;
79526;SDS011;68974;47.754;-3.364;2023-06-19T04:29:12;11.55;;;4.22;;
79526;SDS011;68974;47.754;-3.364;2023-06-19T04:31:42;7.18;;;4.45;;
79526;SDS011;68974;47.754;-3.364;2023-06-19T04:34:11;8.75;;;5.00;;
79526;SDS011;68974;47.754;-3.364;2023-06-19T04:36:49;6.28;;;4.22;;
79526;SDS011;68974;47.754;-3.364;2023-06-19T04:39:15;13.30;;;5.22;;
79526;SDS011;68974;47.754;-3.364;2023-06-19T04:41:42;13.20;;;4.97;;
79526;SDS011;68974;47.754;-3.364;2023-06-19T04:44:09;11.43;;;5.47;;
79526;SDS011;68974;47.754;-3.364;2023-06-19T04:46:36;10.05;;;5.22;;
79526;SDS011;68974;47.754;-3.364;2023-06-19T04:49:02;8.63;;;4.57;;
79526;SDS011;68974;47.754;-3.364;2023-06-19T04:51:29;9.75;;;4.93;;
79526;SDS011;68974;47.754;-3.364;2023-06-19T04:53:56;15.02;;;4.63;;
79526;SDS011;68974;47.754;-3.364;2023-06-19T04:56:22;9.73;;;4.45;;
79526;SDS011;68974;47.754;-3.364;2023-06-19T04:58:47;9.77;;;4.65;;
79526;SDS011;68974;47.754;-3.364;2023-06-19T05:01:13;11.48;;;4.97;;
79526;SDS011;68974;47.754;-3.364;2023-06-19T05:03:40;10.43;;;4.55;;
79526;SDS011;68974;47.754;-3.364;2023-06-19T05:06:06;7.95;;;4.40;;
79526;SDS011;68974;47.754;-3.364;2023-06-19T05:08:31;7.60;;;4.40;;
79526;SDS011;68974;47.754;-3.364;2023-06-19T05:10:57;8.57;;;3.75;;
79526;SDS011;68974;47.754;-3.364;2023-06-19T05:13:23;13.05;;;5.45;;
79526;SDS011;68974;47.754;-3.364;2023-06-19T05:15:49;8.27;;;3.75;;
79526;SDS011;68974;47.754;-3.364;2023-06-19T05:18:15;8.05;;;4.47;;
79526;SDS011;68974;47.754;-3.364;2023-06-19T05:20:41;9.18;;;4.57;;
79526;SDS011;68974;47.754;-3.364;2023-06-19T05:23:06;7.63;;;4.47;;
79526;SDS011;68974;47.754;-3.364;2023-06-19T05:25:32;14.95;;;4.90;;
79526;SDS011;68974;47.754;-3.364;2023-06-19T05:27:57;11.45;;;5.50;;
79526;SDS011;68974;47.754;-3.364;2023-06-19T05:30:23;9.93;;;4.55;;
79526;SDS011;68974;47.754;-3.364;2023-06-19T05:32:48;8.02;;;4.70;;
79526;SDS011;68974;47.754;-3.364;2023-06-19T05:35:13;10.93;;;5.00;;
79526;SDS011;68974;47.754;-3.364;2023-06-19T05:37:39;9.30;;;5.38;;
79526;SDS011;68974;47.754;-3.364;2023-06-19T05:40:05;9.73;;;5.10;;
79526;SDS011;68974;47.754;-3.364;2023-06-19T05:42:31;11.80;;;6.18;;
79526;SDS011;68974;47.754;-3.364;2023-06-19T05:44:56;10.27;;;5.15;;
79526;SDS011;68974;47.754;-3.364;2023-06-19T05:47:22;12.73;;;5.93;;
79526;SDS011;68974;47.754;-3.364;2023-06-19T05:49:50;10.68;;;4.88;;
79526;SDS011;68974;47.754;-3.364;2023-06-19T05:52:16;10.45;;;5.63;;
79526;SDS011;68974;47.754;-3.364;2023-06-19T05:54:41;8.38;;;4.80;;
79526;SDS011;68974;47.754;-3.364;2023-06-19T05:57:07;8.27;;;4.32;;
79526;SDS011;68974;47.754;-3.364;2023-06-19T05:59:33;9.80;;;4.82;;
79526;SDS011;68974;47.754;-3.364;2023-06-19T06:01:58;13.93;;;4.90;;
79526;SDS011;68974;47.754;-3.364;2023-06-19T06:04:24;10.85;;;4.78;;
79526;SDS011;68974;47.754;-3.364;2023-06-19T06:06:49;13.55;;;5.10;;
79526;SDS011;68974;47.754;-3.364;2023-06-19T06:09:14;8.77;;;4.88;;
79526;SDS011;68974;47.754;-3.364;2023-06-19T06:11:41;13.00;;;5.22;;
79526;SDS011;68974;47.754;-3.364;2023-06-19T06:14:07;11.80;;;4.88;;
79526;SDS011;68974;47.754;-3.364;2023-06-19T06:16:32;10.10;;;5.78;;
79526;SDS011;68974;47.754;-3.364;2023-06-19T06:18:58;13.60;;;5.05;;
79526;SDS011;68974;47.754;-3.364;2023-06-19T06:21:24;12.88;;;5.35;;
79526;SDS011;68974;47.754;-3.364;2023-06-19T06:23:49;9.90;;;4.55;;
79526;SDS011;68974;47.754;-3.364;2023-06-19T06:26:14;11.57;;;5.10;;
79526;SDS011;68974;47.754;-3.364;2023-06-19T06:28:40;10.52;;;4.47;;
79526;SDS011;68974;47.754;-3.364;2023-06-19T06:31:06;12.05;;;4.25;;
79526;SDS011;68974;47.754;-3.364;2023-06-19T06:33:32;8.75;;;3.88;;
79526;SDS011;68974;47.754;-3.364;2023-06-19T06:35:57;9.35;;;4.55;;
79526;SDS011;68974;47.754;-3.364;2023-06-19T06:40:50;10.80;;;4.72;;
79526;SDS011;68974;47.754;-3.364;2023-06-19T06:43:16;9.48;;;4.93;;
79526;SDS011;68974;47.754;-3.364;2023-06-19T06:45:41;12.07;;;5.07;;
79526;SDS011;68974;47.754;-3.364;2023-06-19T06:48:07;12.23;;;4.75;;
79526;SDS011;68974;47.754;-3.364;2023-06-19T06:50:33;9.35;;;4.47;;
79526;SDS011;68974;47.754;-3.364;2023-06-19T06:52:59;9.63;;;4.38;;
79526;SDS011;68974;47.754;-3.364;2023-06-19T06:55:25;9.10;;;5.75;;
79526;SDS011;68974;47.754;-3.364;2023-06-19T06:57:50;9.70;;;4.93;;
79526;SDS011;68974;47.754;-3.364;2023-06-19T07:00:16;13.40;;;6.07;;
79526;SDS011;68974;47.754;-3.364;2023-06-19T07:02:43;8.90;;;4.97;;
79526;SDS011;68974;47.754;-3.364;2023-06-19T07:05:09;12.55;;;4.60;;
79526;SDS011;68974;47.754;-3.364;2023-06-19T07:07:35;9.13;;;4.60;;
79526;SDS011;68974;47.754;-3.364;2023-06-19T07:10:01;9.43;;;4.55;;
79526;SDS011;68974;47.754;-3.364;2023-06-19T07:12:26;9.43;;;4.63;;
79526;SDS011;68974;47.754;-3.364;2023-06-19T07:14:55;10.13;;;5.30;;
79526;SDS011;68974;47.754;-3.364;2023-06-19T07:17:20;11.63;;;4.72;;
79526;SDS011;68974;47.754;-3.364;2023-06-19T07:19:46;10.48;;;4.18;;
79526;SDS011;68974;47.754;-3.364;2023-06-19T07:22:11;10.20;;;4.57;;
79526;SDS011;68974;47.754;-3.364;2023-06-19T07:24:39;14.55;;;4.50;;
79526;SDS011;68974;47.754;-3.364;2023-06-19T07:27:06;11.05;;;4.15;;
79526;SDS011;68974;47.754;-3.364;2023-06-19T07:29:31;9.63;;;4.85;;
79526;SDS011;68974;47.754;-3.364;2023-06-19T07:31:57;9.32;;;4.25;;
79526;SDS011;68974;47.754;-3.364;2023-06-19T07:34:23;6.90;;;4.43;;
79526;SDS011;68974;47.754;-3.364;2023-06-19T07:36:49;7.53;;;4.18;;
79526;SDS011;68974;47.754;-3.364;2023-06-19T07:39:15;11.63;;;4.53;;
79526;SDS011;68974;47.754;-3.364;2023-06-19T07:41:41;12.13;;;4.63;;
79526;SDS011;68974;47.754;-3.364;2023-06-19T07:44:06;10.05;;;4.80;;
79526;SDS011;68974;47.754;-3.364;2023-06-19T07:46:32;8.93;;;4.95;;
79526;SDS011;68974;47.754;-3.364;2023-06-19T07:48:57;11.95;;;5.22;;
79526;SDS011;68974;47.754;-3.364;2023-06-19T07:51:23;8.88;;;3.97;;
79526;SDS011;68974;47.754;-3.364;2023-06-19T07:53:48;7.15;;;2.85;;
79526;SDS011;68974;47.754;-3.364;2023-06-19T07:56:13;7.40;;;4.03;;
79526;SDS011;68974;47.754;-3.364;2023-06-19T07:58:39;12.00;;;2.92;;
79526;SDS011;68974;47.754;-3.364;2023-06-19T08:01:04;6.88;;;2.80;;
79526;SDS011;68974;47.754;-3.364;2023-06-19T08:03:30;7.10;;;3.25;;
79526;SDS011;68974;47.754;-3.364;2023-06-19T08:05:56;6.75;;;2.97;;
79526;SDS011;68974;47.754;-3.364;2023-06-19T08:08:21;7.10;;;2.92;;
79526;SDS011;68974;47.754;-3.364;2023-06-19T08:10:50;7.85;;;2.90;;
79526;SDS011;68974;47.754;-3.364;2023-06-19T08:13:15;6.63;;;3.42;;
79526;SDS011;68974;47.754;-3.364;2023-06-19T08:15:40;9.55;;;2.92;;
79526;SDS011;68974;47.754;-3.364;2023-06-19T08:18:06;11.13;;;3.30;;
79526;SDS011;68974;47.754;-3.364;2023-06-19T08:20:31;7.85;;;3.75;;
79526;SDS011;68974;47.754;-3.364;2023-06-19T08:22:57;6.05;;;2.63;;
79526;SDS011;68974;47.754;-3.364;2023-06-19T08:25:22;7.28;;;2.85;;
79526;SDS011;68974;47.754;-3.364;2023-06-19T08:27:48;7.57;;;2.80;;
79526;SDS011;68974;47.754;-3.364;2023-06-19T08:30:13;6.82;;;2.90;;
79526;SDS011;68974;47.754;-3.364;2023-06-19T08:32:39;7.07;;;3.05;;
79526;SDS011;68974;47.754;-3.364;2023-06-19T08:35:04;6.85;;;3.28;;
79526;SDS011;68974;47.754;-3.364;2023-06-19T08:37:30;6.40;;;2.92;;
79526;SDS011;68974;47.754;-3.364;2023-06-19T08:39:55;9.80;;;3.08;;
79526;SDS011;68974;47.754;-3.364;2023-06-19T08:42:21;9.73;;;3.20;;
79526;SDS011;68974;47.754;-3.364;2023-06-19T08:44:48;7.82;;;3.22;;
79526;SDS011;68974;47.754;-3.364;2023-06-19T08:47:14;10.75;;;3.75;;
79526;SDS011;68974;47.754;-3.364;2023-06-19T08:49:39;7.80;;;2.97;;
79526;SDS011;68974;47.754;-3.364;2023-06-19T08:52:05;8.63;;;3.67;;
79526;SDS011;68974;47.754;-3.364;2023-06-19T08:54:31;7.32;;;3.00;;
79526;SDS011;68974;47.754;-3.364;2023-06-19T08:57:00;6.28;;;3.28;;
79526;SDS011;68974;47.754;-3.364;2023-06-19T08:59:26;8.27;;;2.97;;
79526;SDS011;68974;47.754;-3.364;2023-06-19T09:01:53;5.90;;;3.55;;
79526;SDS011;68974;47.754;-3.364;2023-06-19T09:04:20;7.95;;;2.80;;
79526;SDS011;68974;47.754;-3.364;2023-06-19T09:06:55;8.98;;;3.38;;
79526;SDS011;68974;47.754;-3.364;2023-06-19T09:09:23;5.72;;;2.85;;
79526;SDS011;68974;47.754;-3.364;2023-06-19T09:14:35;9.90;;;4.13;;
79526;SDS011;68974;47.754;-3.364;2023-06-19T09:17:05;6.00;;;2.45;;
79526;SDS011;68974;47.754;-3.364;2023-06-19T09:19:33;10.15;;;3.08;;
79526;SDS011;68974;47.754;-3.364;2023-06-19T09:22:05;8.73;;;3.33;;
79526;SDS011;68974;47.754;-3.364;2023-06-19T09:24:36;7.50;;;3.25;;
79526;SDS011;68974;47.754;-3.364;2023-06-19T09:29:37;6.78;;;2.88;;
79526;SDS011;68974;47.754;-3.364;2023-06-19T09:32:25;6.13;;;2.97;;
79526;SDS011;68974;47.754;-3.364;2023-06-19T09:34:54;10.10;;;3.22;;
79526;SDS011;68974;47.754;-3.364;2023-06-19T09:37:24;8.38;;;2.85;;
79526;SDS011;68974;47.754;-3.364;2023-06-19T09:39:54;6.43;;;3.00;;
79526;SDS011;68974;47.754;-3.364;2023-06-19T09:42:26;6.88;;;3.38;;
79526;SDS011;68974;47.754;-3.364;2023-06-19T09:45:03;8.27;;;2.85;;
79526;SDS011;68974;47.754;-3.364;2023-06-19T09:47:30;6.03;;;2.78;;
79526;SDS011;68974;47.754;-3.364;2023-06-19T09:50:01;8.10;;;2.55;;
79526;SDS011;68974;47.754;-3.364;2023-06-19T09:52:28;5.40;;;2.20;;
79526;SDS011;68974;47.754;-3.364;2023-06-19T09:54:54;5.28;;;2.60;;
79526;SDS011;68974;47.754;-3.364;2023-06-19T09:57:20;8.38;;;2.85;;
79526;SDS011;68974;47.754;-3.364;2023-06-19T09:59:55;5.82;;;2.55;;
79526;SDS011;68974;47.754;-3.364;2023-06-19T10:02:24;6.55;;;2.55;;
79526;SDS011;68974;47.754;-3.364;2023-06-19T10:04:55;6.05;;;2.53;;
79526;SDS011;68974;47.754;-3.364;2023-06-19T10:07:25;6.20;;;2.88;;
79526;SDS011;68974;47.754;-3.364;2023-06-19T10:12:38;8.70;;;3.88;;
79526;SDS011;68974;47.754;-3.364;2023-06-19T10:17:50;5.90;;;2.55;;
79526;SDS011;68974;47.754;-3.364;2023-06-19T10:20:25;8.55;;;2.60;;
79526;SDS011;68974;47.754;-3.364;2023-06-19T10:25:24;5.50;;;3.03;;
79526;SDS011;68974;47.754;-3.364;2023-06-19T10:27:53;4.80;;;2.45;;
79526;SDS011;68974;47.754;-3.364;2023-06-19T10:30:19;7.63;;;2.90;;
79526;SDS011;68974;47.754;-3.364;2023-06-19T10:32:46;4.53;;;2.30;;
79526;SDS011;68974;47.754;-3.364;2023-06-19T10:35:13;5.38;;;2.22;;
79526;SDS011;68974;47.754;-3.364;2023-06-19T10:37:39;5.90;;;3.08;;
79526;SDS011;68974;47.754;-3.364;2023-06-19T10:40:05;6.18;;;2.45;;
79526;SDS011;68974;47.754;-3.364;2023-06-19T10:42:34;9.13;;;2.97;;
79526;SDS011;68974;47.754;-3.364;2023-06-19T10:45:02;6.05;;;2.75;;
79526;SDS011;68974;47.754;-3.364;2023-06-19T10:47:28;8.02;;;2.78;;
79526;SDS011;68974;47.754;-3.364;2023-06-19T10:49:54;5.13;;;2.63;;
79526;SDS011;68974;47.754;-3.364;2023-06-19T10:52:19;8.32;;;3.00;;
79526;SDS011;68974;47.754;-3.364;2023-06-19T10:54:45;5.80;;;2.35;;
79526;SDS011;68974;47.754;-3.364;2023-06-19T10:57:11;7.70;;;2.88;;
79526;SDS011;68974;47.754;-3.364;2023-06-19T10:59:38;7.65;;;2.85;;
79526;SDS011;68974;47.754;-3.364;2023-06-19T11:02:05;5.63;;;2.88;;
79526;SDS011;68974;47.754;-3.364;2023-06-19T11:04:31;6.30;;;2.83;;
79526;SDS011;68974;47.754;-3.364;2023-06-19T11:06:56;6.05;;;2.75;;
79526;SDS011;68974;47.754;-3.364;2023-06-19T11:09:22;5.32;;;2.35;;
79526;SDS011;68974;47.754;-3.364;2023-06-19T11:11:47;4.75;;;3.00;;
79526;SDS011;68974;47.754;-3.364;2023-06-19T11:14:14;6.03;;;2.97;;
79526;SDS011;68974;47.754;-3.364;2023-06-19T11:16:41;3.65;;;2.58;;
79526;SDS011;68974;47.754;-3.364;2023-06-19T11:19:15;3.75;;;2.25;;
79526;SDS011;68974;47.754;-3.364;2023-06-19T11:21:44;9.13;;;3.20;;
79526;SDS011;68974;47.754;-3.364;2023-06-19T11:24:12;5.82;;;3.08;;
79526;SDS011;68974;47.754;-3.364;2023-06-19T11:29:16;4.75;;;2.35;;
79526;SDS011;68974;47.754;-3.364;2023-06-19T11:31:43;4.45;;;2.28;;
79526;SDS011;68974;47.754;-3.364;2023-06-19T11:34:09;5.50;;;2.47;;
79526;SDS011;68974;47.754;-3.364;2023-06-19T11:36:39;5.72;;;2.13;;
79526;SDS011;68974;47.754;-3.364;2023-06-19T11:39:08;5.50;;;2.20;;
79526;SDS011;68974;47.754;-3.364;2023-06-19T11:41:35;6.70;;;2.40;;
79526;SDS011;68974;47.754;-3.364;2023-06-19T11:44:04;5.50;;;2.55;;
79526;SDS011;68974;47.754;-3.364;2023-06-19T11:46:32;3.92;;;2.70;;
79526;SDS011;68974;47.754;-3.364;2023-06-19T11:51:33;5.85;;;2.63;;
79526;SDS011;68974;47.754;-3.364;2023-06-19T11:53:59;4.63;;;2.30;;
79526;SDS011;68974;47.754;-3.364;2023-06-19T11:56:24;3.75;;;2.22;;
79526;SDS011;68974;47.754;-3.364;2023-06-19T11:58:50;11.93;;;3.88;;
79526;SDS011;68974;47.754;-3.364;2023-06-19T12:01:15;5.68;;;3.15;;
79526;SDS011;68974;47.754;-3.364;2023-06-19T12:03:40;5.18;;;2.47;;
79526;SDS011;68974;47.754;-3.364;2023-06-19T12:06:06;7.97;;;2.92;;
79526;SDS011;68974;47.754;-3.364;2023-06-19T12:08:32;8.02;;;2.72;;
79526;SDS011;68974;47.754;-3.364;2023-06-19T12:10:58;7.43;;;2.83;;
79526;SDS011;68974;47.754;-3.364;2023-06-19T12:13:23;6.82;;;2.97;;
79526;SDS011;68974;47.754;-3.364;2023-06-19T12:15:49;9.27;;;3.13;;
79526;SDS011;68974;47.754;-3.364;2023-06-19T12:18:14;6.93;;;2.45;;
79526;SDS011;68974;47.754;-3.364;2023-06-19T12:20:40;5.88;;;2.97;;
79526;SDS011;68974;47.754;-3.364;2023-06-19T12:23:05;5.90;;;2.65;;
79526;SDS011;68974;47.754;-3.364;2023-06-19T12:25:30;7.65;;;3.08;;
79526;SDS011;68974;47.754;-3.364;2023-06-19T12:27:56;4.97;;;2.70;;
79526;SDS011;68974;47.754;-3.364;2023-06-19T12:30:22;7.97;;;3.30;;
79526;SDS011;68974;47.754;-3.364;2023-06-19T12:32:47;5.57;;;2.78;;
79526;SDS011;68974;47.754;-3.364;2023-06-19T12:35:13;7.05;;;2.80;;
79526;SDS011;68974;47.754;-3.364;2023-06-19T12:37:39;9.20;;;2.85;;
79526;SDS011;68974;47.754;-3.364;2023-06-19T12:40:04;3.78;;;2.88;;
79526;SDS011;68974;47.754;-3.364;2023-06-19T12:42:35;5.50;;;2.83;;
79526;SDS011;68974;47.754;-3.364;2023-06-19T12:45:01;7.03;;;3.25;;
79526;SDS011;68974;47.754;-3.364;2023-06-19T12:47:26;4.05;;;2.47;;
79526;SDS011;68974;47.754;-3.364;2023-06-19T12:49:51;4.65;;;2.42;;
79526;SDS011;68974;47.754;-3.364;2023-06-19T12:52:17;4.63;;;2.55;;
79526;SDS011;68974;47.754;-3.364;2023-06-19T12:54:42;4.40;;;2.70;;
79526;SDS011;68974;47.754;-3.364;2023-06-19T12:57:08;5.13;;;3.33;;
79526;SDS011;68974;47.754;-3.364;2023-06-19T12:59:33;6.03;;;2.95;;
79526;SDS011;68974;47.754;-3.364;2023-06-19T13:01:58;5.40;;;2.45;;
79526;SDS011;68974;47.754;-3.364;2023-06-19T13:04:24;4.75;;;2.70;;
79526;SDS011;68974;47.754;-3.364;2023-06-19T13:06:49;9.48;;;3.08;;
79526;SDS011;68974;47.754;-3.364;2023-06-19T13:09:15;6.40;;;2.50;;
79526;SDS011;68974;47.754;-3.364;2023-06-19T13:11:40;4.88;;;2.72;;
79526;SDS011;68974;47.754;-3.364;2023-06-19T13:14:06;5.68;;;2.97;;
79526;SDS011;68974;47.754;-3.364;2023-06-19T13:16:31;6.47;;;3.30;;
79526;SDS011;68974;47.754;-3.364;2023-06-19T13:18:57;5.05;;;2.97;;
79526;SDS011;68974;47.754;-3.364;2023-06-19T13:21:22;5.97;;;3.10;;
79526;SDS011;68974;47.754;-3.364;2023-06-19T13:23:48;4.03;;;2.63;;
79526;SDS011;68974;47.754;-3.364;2023-06-19T13:26:14;4.90;;;2.88;;
79526;SDS011;68974;47.754;-3.364;2023-06-19T13:28:39;6.38;;;3.50;;
79526;SDS011;68974;47.754;-3.364;2023-06-19T13:31:05;4.75;;;2.80;;
79526;SDS011;68974;47.754;-3.364;2023-06-19T13:33:30;6.85;;;3.58;;
79526;SDS011;68974;47.754;-3.364;2023-06-19T13:35:55;4.32;;;2.88;;
79526;SDS011;68974;47.754;-3.364;2023-06-19T13:38:21;6.32;;;3.13;;
79526;SDS011;68974;47.754;-3.364;2023-06-19T13:40:46;4.65;;;3.22;;
79526;SDS011;68974;47.754;-3.364;2023-06-19T13:43:12;4.75;;;2.72;;
79526;SDS011;68974;47.754;-3.364;2023-06-19T13:45:38;4.78;;;2.78;;
79526;SDS011;68974;47.754;-3.364;2023-06-19T13:48:04;6.70;;;3.05;;
79526;SDS011;68974;47.754;-3.364;2023-06-19T13:50:30;4.35;;;3.50;;
79526;SDS011;68974;47.754;-3.364;2023-06-19T13:52:57;6.80;;;3.25;;
79526;SDS011;68974;47.754;-3.364;2023-06-19T13:55:22;5.63;;;3.10;;
79526;SDS011;68974;47.754;-3.364;2023-06-19T13:57:48;5.30;;;3.20;;
79526;SDS011;68974;47.754;-3.364;2023-06-19T14:00:13;3.95;;;2.65;;
79526;SDS011;68974;47.754;-3.364;2023-06-19T14:02:39;5.82;;;3.35;;
79526;SDS011;68974;47.754;-3.364;2023-06-19T14:05:06;4.13;;;3.20;;
79526;SDS011;68974;47.754;-3.364;2023-06-19T14:07:33;7.43;;;3.33;;
79526;SDS011;68974;47.754;-3.364;2023-06-19T14:10:00;8.20;;;3.97;;
79526;SDS011;68974;47.754;-3.364;2023-06-19T14:12:26;5.95;;;3.58;;
79526;SDS011;68974;47.754;-3.364;2023-06-19T14:14:51;5.45;;;4.07;;
79526;SDS011;68974;47.754;-3.364;2023-06-19T14:17:17;8.63;;;4.78;;
79526;SDS011;68974;47.754;-3.364;2023-06-19T14:19:42;6.10;;;3.58;;
79526;SDS011;68974;47.754;-3.364;2023-06-19T14:22:07;4.47;;;3.13;;
79526;SDS011;68974;47.754;-3.364;2023-06-19T14:24:33;4.63;;;3.67;;
79526;SDS011;68974;47.754;-3.364;2023-06-19T14:26:58;5.15;;;3.95;;
79526;SDS011;68974;47.754;-3.364;2023-06-19T14:29:24;7.68;;;4.35;;
79526;SDS011;68974;47.754;-3.364;2023-06-19T14:31:52;5.68;;;3.58;;
79526;SDS011;68974;47.754;-3.364;2023-06-19T14:34:18;6.93;;;3.88;;
79526;SDS011;68974;47.754;-3.364;2023-06-19T14:36:45;9.00;;;4.05;;
79526;SDS011;68974;47.754;-3.364;2023-06-19T14:39:11;6.15;;;4.45;;
79526;SDS011;68974;47.754;-3.364;2023-06-19T14:41:36;4.88;;;3.78;;
79526;SDS011;68974;47.754;-3.364;2023-06-19T14:44:02;6.65;;;3.75;;
79526;SDS011;68974;47.754;-3.364;2023-06-19T14:46:29;5.55;;;3.55;;
79526;SDS011;68974;47.754;-3.364;2023-06-19T14:48:56;8.55;;;4.40;;